sensor_id;sensor_type;location;lat;lon;timestamp;temperature;humidity
43946;DHT22;29599;51.196;4.428;2022-10-19T00:01:05;12.50;99.90
43946;DHT22;29599;51.196;4.428;2022-10-19T00:03:31;12.60;99.90
43946;DHT22;29599;51.196;4.428;2022-10-19T00:05:57;12.40;99.90
43946;DHT22;29599;51.196;4.428;2022-10-19T00:08:23;12.50;99.90
43946;DHT22;29599;51.196;4.428;2022-10-19T00:10:49;12.50;99.90
43946;DHT22;29599;51.196;4.428;2022-10-19T00:13:14;12.50;99.90
43946;DHT22;29599;51.196;4.428;2022-10-19T00:15:40;12.50;99.90
43946;DHT22;29599;51.196;4.428;2022-10-19T00:18:07;12.40;99.90
43946;DHT22;29599;51.196;4.428;2022-10-19T00:20:33;12.40;99.90
43946;DHT22;29599;51.196;4.428;2022-10-19T00:22:59;12.30;99.90
43946;DHT22;29599;51.196;4.428;2022-10-19T00:25:24;12.30;99.90
43946;DHT22;29599;51.196;4.428;2022-10-19T00:27:50;12.30;99.90
43946;DHT22;29599;51.196;4.428;2022-10-19T00:30:16;12.30;99.90
43946;DHT22;29599;51.196;4.428;2022-10-19T00:32:41;12.30;99.90
43946;DHT22;29599;51.196;4.428;2022-10-19T00:35:07;12.30;99.90
43946;DHT22;29599;51.196;4.428;2022-10-19T00:37:33;12.30;99.90
43946;DHT22;29599;51.196;4.428;2022-10-19T00:39:58;12.30;99.90
43946;DHT22;29599;51.196;4.428;2022-10-19T00:42:24;12.30;99.90
43946;DHT22;29599;51.196;4.428;2022-10-19T00:47:18;12.30;99.90
43946;DHT22;29599;51.196;4.428;2022-10-19T00:49:47;12.30;99.90
43946;DHT22;29599;51.196;4.428;2022-10-19T00:52:16;12.30;99.90
43946;DHT22;29599;51.196;4.428;2022-10-19T00:54:43;12.20;99.90
43946;DHT22;29599;51.196;4.428;2022-10-19T00:57:10;12.20;99.90
43946;DHT22;29599;51.196;4.428;2022-10-19T00:59:37;12.20;99.90
43946;DHT22;29599;51.196;4.428;2022-10-19T01:02:05;12.10;99.90
43946;DHT22;29599;51.196;4.428;2022-10-19T01:04:34;12.10;99.90
43946;DHT22;29599;51.196;4.428;2022-10-19T01:07:02;12.20;99.90
43946;DHT22;29599;51.196;4.428;2022-10-19T01:09:29;12.10;99.90
43946;DHT22;29599;51.196;4.428;2022-10-19T01:17:12;12.10;99.90
43946;DHT22;29599;51.196;4.428;2022-10-19T01:28:18;12.10;99.90
43946;DHT22;29599;51.196;4.428;2022-10-19T01:30:51;12.00;99.90
43946;DHT22;29599;51.196;4.428;2022-10-19T01:34:02;12.00;99.90
43946;DHT22;29599;51.196;4.428;2022-10-19T01:36:28;12.00;99.90
43946;DHT22;29599;51.196;4.428;2022-10-19T01:41:52;12.00;99.90
43946;DHT22;29599;51.196;4.428;2022-10-19T01:47:05;12.10;99.90
43946;DHT22;29599;51.196;4.428;2022-10-19T01:52:11;11.90;99.90
43946;DHT22;29599;51.196;4.428;2022-10-19T01:54:44;11.80;99.90
43946;DHT22;29599;51.196;4.428;2022-10-19T01:57:13;11.80;99.90
43946;DHT22;29599;51.196;4.428;2022-10-19T01:59:41;11.80;99.90
43946;DHT22;29599;51.196;4.428;2022-10-19T02:02:08;11.80;99.90
43946;DHT22;29599;51.196;4.428;2022-10-19T02:04:35;11.80;99.90
43946;DHT22;29599;51.196;4.428;2022-10-19T02:07:03;11.80;99.90
43946;DHT22;29599;51.196;4.428;2022-10-19T02:09:30;11.80;99.90
43946;DHT22;29599;51.196;4.428;2022-10-19T02:11:59;11.80;99.90
43946;DHT22;29599;51.196;4.428;2022-10-19T02:14:29;11.80;99.90
43946;DHT22;29599;51.196;4.428;2022-10-19T02:17:04;11.80;99.90
43946;DHT22;29599;51.196;4.428;2022-10-19T02:19:30;11.80;99.90
43946;DHT22;29599;51.196;4.428;2022-10-19T02:21:56;11.70;99.90
43946;DHT22;29599;51.196;4.428;2022-10-19T02:24:22;11.80;99.90
43946;DHT22;29599;51.196;4.428;2022-10-19T02:26:47;11.80;99.90
43946;DHT22;29599;51.196;4.428;2022-10-19T02:29:14;11.70;99.90
43946;DHT22;29599;51.196;4.428;2022-10-19T02:31:41;11.60;99.90
43946;DHT22;29599;51.196;4.428;2022-10-19T02:34:07;11.50;99.90
43946;DHT22;29599;51.196;4.428;2022-10-19T02:36:33;11.40;99.90
43946;DHT22;29599;51.196;4.428;2022-10-19T02:38:59;11.40;99.90
43946;DHT22;29599;51.196;4.428;2022-10-19T02:41:48;11.30;99.90
43946;DHT22;29599;51.196;4.428;2022-10-19T02:44:22;11.40;99.90
43946;DHT22;29599;51.196;4.428;2022-10-19T02:46:55;11.40;99.90
43946;DHT22;29599;51.196;4.428;2022-10-19T02:49:23;11.40;99.90
43946;DHT22;29599;51.196;4.428;2022-10-19T02:51:59;11.30;99.90
43946;DHT22;29599;51.196;4.428;2022-10-19T02:54:25;11.40;99.90
43946;DHT22;29599;51.196;4.428;2022-10-19T02:56:50;11.30;99.90
43946;DHT22;29599;51.196;4.428;2022-10-19T02:59:16;11.30;99.90
43946;DHT22;29599;51.196;4.428;2022-10-19T03:01:42;11.30;99.90
43946;DHT22;29599;51.196;4.428;2022-10-19T03:04:07;11.30;99.90
43946;DHT22;29599;51.196;4.428;2022-10-19T03:06:33;11.30;99.90
43946;DHT22;29599;51.196;4.428;2022-10-19T03:08:59;11.30;99.90
43946;DHT22;29599;51.196;4.428;2022-10-19T03:11:24;11.30;99.90
43946;DHT22;29599;51.196;4.428;2022-10-19T03:13:50;11.30;99.90
43946;DHT22;29599;51.196;4.428;2022-10-19T03:16:15;11.30;99.90
43946;DHT22;29599;51.196;4.428;2022-10-19T03:18:41;11.30;99.90
43946;DHT22;29599;51.196;4.428;2022-10-19T03:21:09;11.20;99.90
43946;DHT22;29599;51.196;4.428;2022-10-19T03:23:35;11.20;99.90
43946;DHT22;29599;51.196;4.428;2022-10-19T03:26:00;11.30;99.90
43946;DHT22;29599;51.196;4.428;2022-10-19T03:28:26;11.30;99.90
43946;DHT22;29599;51.196;4.428;2022-10-19T03:30:52;11.30;99.90
43946;DHT22;29599;51.196;4.428;2022-10-19T03:33:18;11.30;99.90
43946;DHT22;29599;51.196;4.428;2022-10-19T03:35:43;11.40;99.90
43946;DHT22;29599;51.196;4.428;2022-10-19T03:38:09;11.40;99.90
43946;DHT22;29599;51.196;4.428;2022-10-19T03:40:34;11.30;99.90
43946;DHT22;29599;51.196;4.428;2022-10-19T03:43:00;11.30;99.90
43946;DHT22;29599;51.196;4.428;2022-10-19T03:45:26;11.40;99.90
43946;DHT22;29599;51.196;4.428;2022-10-19T03:47:51;11.40;99.90
43946;DHT22;29599;51.196;4.428;2022-10-19T03:50:17;11.30;99.90
43946;DHT22;29599;51.196;4.428;2022-10-19T03:52:43;11.30;99.90
43946;DHT22;29599;51.196;4.428;2022-10-19T03:55:10;11.30;99.90
43946;DHT22;29599;51.196;4.428;2022-10-19T03:57:36;11.30;99.90
43946;DHT22;29599;51.196;4.428;2022-10-19T04:00:03;11.40;99.90
43946;DHT22;29599;51.196;4.428;2022-10-19T04:02:29;11.20;99.90
43946;DHT22;29599;51.196;4.428;2022-10-19T04:04:55;11.30;99.90
43946;DHT22;29599;51.196;4.428;2022-10-19T04:07:20;11.20;99.90
43946;DHT22;29599;51.196;4.428;2022-10-19T04:09:46;11.10;99.90
43946;DHT22;29599;51.196;4.428;2022-10-19T04:12:11;11.30;99.90
43946;DHT22;29599;51.196;4.428;2022-10-19T04:14:37;11.20;99.90
43946;DHT22;29599;51.196;4.428;2022-10-19T04:17:03;11.20;99.90
43946;DHT22;29599;51.196;4.428;2022-10-19T04:19:29;11.20;99.90
43946;DHT22;29599;51.196;4.428;2022-10-19T04:21:55;11.20;99.90
43946;DHT22;29599;51.196;4.428;2022-10-19T04:24:21;11.20;99.90
43946;DHT22;29599;51.196;4.428;2022-10-19T04:26:49;11.10;99.90
43946;DHT22;29599;51.196;4.428;2022-10-19T04:29:17;11.10;99.90
43946;DHT22;29599;51.196;4.428;2022-10-19T04:31:48;11.00;99.90
43946;DHT22;29599;51.196;4.428;2022-10-19T04:34:14;11.00;99.90
43946;DHT22;29599;51.196;4.428;2022-10-19T04:36:40;10.90;99.90
43946;DHT22;29599;51.196;4.428;2022-10-19T04:39:06;11.00;99.90
43946;DHT22;29599;51.196;4.428;2022-10-19T04:41:32;11.00;99.90
43946;DHT22;29599;51.196;4.428;2022-10-19T04:44:01;10.90;99.90
43946;DHT22;29599;51.196;4.428;2022-10-19T04:46:27;11.00;99.90
43946;DHT22;29599;51.196;4.428;2022-10-19T04:48:53;11.10;99.90
43946;DHT22;29599;51.196;4.428;2022-10-19T04:51:19;11.00;99.90
43946;DHT22;29599;51.196;4.428;2022-10-19T04:53:46;11.00;99.90
43946;DHT22;29599;51.196;4.428;2022-10-19T04:56:14;11.00;99.90
43946;DHT22;29599;51.196;4.428;2022-10-19T04:58:40;11.00;99.90
43946;DHT22;29599;51.196;4.428;2022-10-19T05:01:26;10.90;99.90
43946;DHT22;29599;51.196;4.428;2022-10-19T05:03:56;10.90;99.90
43946;DHT22;29599;51.196;4.428;2022-10-19T05:06:22;10.90;99.90
43946;DHT22;29599;51.196;4.428;2022-10-19T05:08:48;10.90;99.90
43946;DHT22;29599;51.196;4.428;2022-10-19T05:11:14;10.80;99.90
43946;DHT22;29599;51.196;4.428;2022-10-19T05:13:41;10.80;99.90
43946;DHT22;29599;51.196;4.428;2022-10-19T05:16:13;10.90;99.90
43946;DHT22;29599;51.196;4.428;2022-10-19T05:18:39;10.80;99.90
43946;DHT22;29599;51.196;4.428;2022-10-19T05:21:07;10.80;99.90
43946;DHT22;29599;51.196;4.428;2022-10-19T05:23:33;10.80;99.90
43946;DHT22;29599;51.196;4.428;2022-10-19T05:26:07;10.80;99.90
43946;DHT22;29599;51.196;4.428;2022-10-19T05:28:33;10.80;99.90
43946;DHT22;29599;51.196;4.428;2022-10-19T05:31:17;10.80;99.90
43946;DHT22;29599;51.196;4.428;2022-10-19T05:33:43;10.70;99.90
43946;DHT22;29599;51.196;4.428;2022-10-19T05:36:27;10.70;99.90
43946;DHT22;29599;51.196;4.428;2022-10-19T05:38:56;10.70;99.90
43946;DHT22;29599;51.196;4.428;2022-10-19T05:41:23;10.80;99.90
43946;DHT22;29599;51.196;4.428;2022-10-19T05:44:01;10.70;99.90
43946;DHT22;29599;51.196;4.428;2022-10-19T05:46:28;10.70;99.90
43946;DHT22;29599;51.196;4.428;2022-10-19T05:48:55;10.60;99.90
43946;DHT22;29599;51.196;4.428;2022-10-19T05:51:22;10.60;99.90
43946;DHT22;29599;51.196;4.428;2022-10-19T05:53:48;10.50;99.90
43946;DHT22;29599;51.196;4.428;2022-10-19T05:56:18;10.50;99.90
43946;DHT22;29599;51.196;4.428;2022-10-19T05:58:44;10.50;99.90
43946;DHT22;29599;51.196;4.428;2022-10-19T06:01:10;10.50;99.90
43946;DHT22;29599;51.196;4.428;2022-10-19T06:03:36;10.40;99.90
43946;DHT22;29599;51.196;4.428;2022-10-19T06:06:04;10.30;99.90
43946;DHT22;29599;51.196;4.428;2022-10-19T06:08:29;10.30;99.90
43946;DHT22;29599;51.196;4.428;2022-10-19T06:11:10;10.30;99.90
43946;DHT22;29599;51.196;4.428;2022-10-19T06:13:36;10.40;99.90
43946;DHT22;29599;51.196;4.428;2022-10-19T06:16:04;10.40;99.90
43946;DHT22;29599;51.196;4.428;2022-10-19T06:18:30;10.50;99.90
43946;DHT22;29599;51.196;4.428;2022-10-19T06:21:01;10.60;99.90
43946;DHT22;29599;51.196;4.428;2022-10-19T06:23:26;10.60;99.90
43946;DHT22;29599;51.196;4.428;2022-10-19T06:25:52;10.60;99.90
43946;DHT22;29599;51.196;4.428;2022-10-19T06:28:18;10.60;99.90
43946;DHT22;29599;51.196;4.428;2022-10-19T06:30:43;10.50;99.90
43946;DHT22;29599;51.196;4.428;2022-10-19T06:33:09;10.50;99.90
43946;DHT22;29599;51.196;4.428;2022-10-19T06:35:34;10.50;99.90
43946;DHT22;29599;51.196;4.428;2022-10-19T06:38:00;10.40;99.90
43946;DHT22;29599;51.196;4.428;2022-10-19T06:40:25;10.40;99.90
43946;DHT22;29599;51.196;4.428;2022-10-19T06:42:51;10.40;99.90
43946;DHT22;29599;51.196;4.428;2022-10-19T06:45:18;10.50;99.90
43946;DHT22;29599;51.196;4.428;2022-10-19T06:47:44;10.40;99.90
43946;DHT22;29599;51.196;4.428;2022-10-19T06:50:09;10.40;99.90
43946;DHT22;29599;51.196;4.428;2022-10-19T06:52:35;10.40;99.90
43946;DHT22;29599;51.196;4.428;2022-10-19T06:55:02;10.40;99.90
43946;DHT22;29599;51.196;4.428;2022-10-19T06:57:27;10.40;99.90
43946;DHT22;29599;51.196;4.428;2022-10-19T06:59:53;10.40;99.90
43946;DHT22;29599;51.196;4.428;2022-10-19T07:02:19;10.50;99.90
43946;DHT22;29599;51.196;4.428;2022-10-19T07:04:45;10.70;99.90
43946;DHT22;29599;51.196;4.428;2022-10-19T07:07:10;10.60;99.90
43946;DHT22;29599;51.196;4.428;2022-10-19T07:09:36;10.60;99.90
43946;DHT22;29599;51.196;4.428;2022-10-19T07:12:02;10.50;99.90
43946;DHT22;29599;51.196;4.428;2022-10-19T07:14:27;10.50;99.90
43946;DHT22;29599;51.196;4.428;2022-10-19T07:16:54;10.50;99.90
43946;DHT22;29599;51.196;4.428;2022-10-19T07:19:20;10.50;99.90
43946;DHT22;29599;51.196;4.428;2022-10-19T07:21:49;10.50;99.90
43946;DHT22;29599;51.196;4.428;2022-10-19T07:24:16;10.50;99.90
43946;DHT22;29599;51.196;4.428;2022-10-19T07:26:41;10.50;99.90
43946;DHT22;29599;51.196;4.428;2022-10-19T07:29:07;10.50;99.90
43946;DHT22;29599;51.196;4.428;2022-10-19T07:31:33;10.50;99.90
43946;DHT22;29599;51.196;4.428;2022-10-19T07:34:01;10.50;99.90
43946;DHT22;29599;51.196;4.428;2022-10-19T07:36:28;10.50;99.90
43946;DHT22;29599;51.196;4.428;2022-10-19T07:38:54;10.60;99.90
43946;DHT22;29599;51.196;4.428;2022-10-19T07:41:22;10.60;99.90
43946;DHT22;29599;51.196;4.428;2022-10-19T07:43:48;10.60;99.90
43946;DHT22;29599;51.196;4.428;2022-10-19T07:46:26;10.60;99.90
43946;DHT22;29599;51.196;4.428;2022-10-19T07:48:53;10.60;99.90
43946;DHT22;29599;51.196;4.428;2022-10-19T07:51:20;10.60;99.90
43946;DHT22;29599;51.196;4.428;2022-10-19T07:53:46;10.80;99.90
43946;DHT22;29599;51.196;4.428;2022-10-19T07:56:14;10.80;99.90
43946;DHT22;29599;51.196;4.428;2022-10-19T07:58:40;10.80;99.90
43946;DHT22;29599;51.196;4.428;2022-10-19T08:01:08;10.90;99.90
43946;DHT22;29599;51.196;4.428;2022-10-19T08:03:34;11.00;99.90
43946;DHT22;29599;51.196;4.428;2022-10-19T08:06:02;11.10;99.90
43946;DHT22;29599;51.196;4.428;2022-10-19T08:08:29;11.10;99.90
43946;DHT22;29599;51.196;4.428;2022-10-19T08:10:54;11.00;99.90
43946;DHT22;29599;51.196;4.428;2022-10-19T08:13:20;11.10;99.90
43946;DHT22;29599;51.196;4.428;2022-10-19T08:15:46;11.20;99.90
43946;DHT22;29599;51.196;4.428;2022-10-19T08:18:12;11.20;99.90
43946;DHT22;29599;51.196;4.428;2022-10-19T08:20:41;11.30;99.90
43946;DHT22;29599;51.196;4.428;2022-10-19T08:23:06;11.40;99.90
43946;DHT22;29599;51.196;4.428;2022-10-19T08:25:32;11.40;99.90
43946;DHT22;29599;51.196;4.428;2022-10-19T08:27:58;11.50;99.90
43946;DHT22;29599;51.196;4.428;2022-10-19T08:30:23;11.50;99.90
43946;DHT22;29599;51.196;4.428;2022-10-19T08:32:49;11.60;99.90
43946;DHT22;29599;51.196;4.428;2022-10-19T08:35:15;11.60;99.90
43946;DHT22;29599;51.196;4.428;2022-10-19T08:37:40;11.70;99.90
43946;DHT22;29599;51.196;4.428;2022-10-19T08:40:16;11.80;99.90
43946;DHT22;29599;51.196;4.428;2022-10-19T08:43:13;11.80;99.90
43946;DHT22;29599;51.196;4.428;2022-10-19T08:45:59;11.90;99.90
43946;DHT22;29599;51.196;4.428;2022-10-19T08:48:31;11.90;99.90
43946;DHT22;29599;51.196;4.428;2022-10-19T08:50:59;12.00;99.90
43946;DHT22;29599;51.196;4.428;2022-10-19T08:59:08;12.10;99.90
43946;DHT22;29599;51.196;4.428;2022-10-19T09:01:47;12.20;99.90
43946;DHT22;29599;51.196;4.428;2022-10-19T09:09:31;12.40;99.90
43946;DHT22;29599;51.196;4.428;2022-10-19T09:12:03;12.50;99.90
43946;DHT22;29599;51.196;4.428;2022-10-19T09:14:56;12.50;99.90
43946;DHT22;29599;51.196;4.428;2022-10-19T09:17:22;12.70;99.90
43946;DHT22;29599;51.196;4.428;2022-10-19T09:19:50;12.80;99.90
43946;DHT22;29599;51.196;4.428;2022-10-19T09:22:22;12.90;99.90
43946;DHT22;29599;51.196;4.428;2022-10-19T09:24:53;12.90;99.90
43946;DHT22;29599;51.196;4.428;2022-10-19T09:27:22;12.90;99.90
43946;DHT22;29599;51.196;4.428;2022-10-19T09:29:54;13.10;99.90
43946;DHT22;29599;51.196;4.428;2022-10-19T09:32:28;13.20;99.90
43946;DHT22;29599;51.196;4.428;2022-10-19T09:35:19;13.40;99.90
43946;DHT22;29599;51.196;4.428;2022-10-19T09:37:47;13.50;99.90
43946;DHT22;29599;51.196;4.428;2022-10-19T09:40:18;13.40;99.90
43946;DHT22;29599;51.196;4.428;2022-10-19T09:42:44;13.50;99.90
43946;DHT22;29599;51.196;4.428;2022-10-19T09:45:23;13.60;99.90
43946;DHT22;29599;51.196;4.428;2022-10-19T09:47:52;13.70;99.90
43946;DHT22;29599;51.196;4.428;2022-10-19T09:50:26;13.80;99.90
43946;DHT22;29599;51.196;4.428;2022-10-19T09:52:55;13.80;99.90
43946;DHT22;29599;51.196;4.428;2022-10-19T09:58:03;14.00;99.90
43946;DHT22;29599;51.196;4.428;2022-10-19T10:00:38;14.20;99.90
43946;DHT22;29599;51.196;4.428;2022-10-19T10:03:05;14.10;99.90
43946;DHT22;29599;51.196;4.428;2022-10-19T10:05:37;14.20;99.90
43946;DHT22;29599;51.196;4.428;2022-10-19T10:08:13;14.30;99.90
43946;DHT22;29599;51.196;4.428;2022-10-19T10:10:43;14.30;99.90
43946;DHT22;29599;51.196;4.428;2022-10-19T10:13:16;14.40;99.90
43946;DHT22;29599;51.196;4.428;2022-10-19T10:15:48;14.60;99.90
43946;DHT22;29599;51.196;4.428;2022-10-19T10:18:15;14.60;99.90
43946;DHT22;29599;51.196;4.428;2022-10-19T10:21:02;14.70;99.90
43946;DHT22;29599;51.196;4.428;2022-10-19T10:23:31;14.80;99.90
43946;DHT22;29599;51.196;4.428;2022-10-19T10:25:59;14.80;99.90
43946;DHT22;29599;51.196;4.428;2022-10-19T10:28:27;14.80;99.90
43946;DHT22;29599;51.196;4.428;2022-10-19T10:31:04;14.80;99.90
43946;DHT22;29599;51.196;4.428;2022-10-19T10:33:33;14.70;99.90
43946;DHT22;29599;51.196;4.428;2022-10-19T10:36:06;14.80;99.90
43946;DHT22;29599;51.196;4.428;2022-10-19T10:38:36;14.90;99.90
43946;DHT22;29599;51.196;4.428;2022-10-19T10:41:09;15.00;99.90
43946;DHT22;29599;51.196;4.428;2022-10-19T10:43:48;15.00;99.90
43946;DHT22;29599;51.196;4.428;2022-10-19T10:46:20;15.00;99.90
43946;DHT22;29599;51.196;4.428;2022-10-19T10:48:58;15.00;99.90
43946;DHT22;29599;51.196;4.428;2022-10-19T10:51:38;15.00;99.90
43946;DHT22;29599;51.196;4.428;2022-10-19T10:54:21;14.90;99.90
43946;DHT22;29599;51.196;4.428;2022-10-19T10:59:25;14.90;99.90
43946;DHT22;29599;51.196;4.428;2022-10-19T11:02:02;15.00;99.90
43946;DHT22;29599;51.196;4.428;2022-10-19T11:04:33;15.00;99.90
43946;DHT22;29599;51.196;4.428;2022-10-19T11:07:15;14.90;99.90
43946;DHT22;29599;51.196;4.428;2022-10-19T11:09:43;15.00;99.90
43946;DHT22;29599;51.196;4.428;2022-10-19T11:12:13;15.00;99.90
43946;DHT22;29599;51.196;4.428;2022-10-19T11:17:21;14.90;99.90
43946;DHT22;29599;51.196;4.428;2022-10-19T11:19:47;14.90;99.90
43946;DHT22;29599;51.196;4.428;2022-10-19T11:31:01;14.80;99.90
43946;DHT22;29599;51.196;4.428;2022-10-19T11:36:36;14.90;99.90
43946;DHT22;29599;51.196;4.428;2022-10-19T11:39:28;14.80;99.90
43946;DHT22;29599;51.196;4.428;2022-10-19T11:44:48;14.80;99.90
43946;DHT22;29599;51.196;4.428;2022-10-19T11:53:10;14.80;99.90
43946;DHT22;29599;51.196;4.428;2022-10-19T11:55:49;14.80;99.90
43946;DHT22;29599;51.196;4.428;2022-10-19T12:01:31;14.80;99.90
43946;DHT22;29599;51.196;4.428;2022-10-19T12:07:50;14.80;99.90
43946;DHT22;29599;51.196;4.428;2022-10-19T12:10:42;14.80;99.90
43946;DHT22;29599;51.196;4.428;2022-10-19T12:13:15;14.80;99.90
43946;DHT22;29599;51.196;4.428;2022-10-19T12:15:45;14.90;99.90
43946;DHT22;29599;51.196;4.428;2022-10-19T12:18:42;14.80;99.90
43946;DHT22;29599;51.196;4.428;2022-10-19T12:23:41;14.90;99.90
43946;DHT22;29599;51.196;4.428;2022-10-19T12:26:10;14.90;99.90
43946;DHT22;29599;51.196;4.428;2022-10-19T12:28:48;14.90;99.90
43946;DHT22;29599;51.196;4.428;2022-10-19T12:31:14;14.90;99.90
43946;DHT22;29599;51.196;4.428;2022-10-19T12:37:10;14.90;99.90
43946;DHT22;29599;51.196;4.428;2022-10-19T12:42:48;14.90;99.90
43946;DHT22;29599;51.196;4.428;2022-10-19T12:53:24;14.90;99.90
43946;DHT22;29599;51.196;4.428;2022-10-19T12:56:02;15.00;99.90
43946;DHT22;29599;51.196;4.428;2022-10-19T13:01:18;14.90;99.90
43946;DHT22;29599;51.196;4.428;2022-10-19T13:03:46;14.90;99.90
43946;DHT22;29599;51.196;4.428;2022-10-19T13:06:17;14.90;99.90
43946;DHT22;29599;51.196;4.428;2022-10-19T13:11:18;14.90;99.90
43946;DHT22;29599;51.196;4.428;2022-10-19T13:14:05;15.00;99.90
43946;DHT22;29599;51.196;4.428;2022-10-19T13:16:38;15.00;99.90
43946;DHT22;29599;51.196;4.428;2022-10-19T13:21:55;15.00;99.90
43946;DHT22;29599;51.196;4.428;2022-10-19T13:40:36;15.00;99.90
43946;DHT22;29599;51.196;4.428;2022-10-19T13:43:02;15.00;99.90
43946;DHT22;29599;51.196;4.428;2022-10-19T13:45:28;15.00;99.90
43946;DHT22;29599;51.196;4.428;2022-10-19T13:48:03;15.00;99.90
43946;DHT22;29599;51.196;4.428;2022-10-19T13:50:42;15.00;99.90
43946;DHT22;29599;51.196;4.428;2022-10-19T13:53:29;15.00;99.90
43946;DHT22;29599;51.196;4.428;2022-10-19T14:01:48;15.00;99.90
43946;DHT22;29599;51.196;4.428;2022-10-19T14:04:20;15.00;99.90
43946;DHT22;29599;51.196;4.428;2022-10-19T14:06:53;15.00;99.90
43946;DHT22;29599;51.196;4.428;2022-10-19T14:12:24;15.00;99.90
43946;DHT22;29599;51.196;4.428;2022-10-19T14:14:50;15.00;99.90
43946;DHT22;29599;51.196;4.428;2022-10-19T14:17:24;15.00;99.90
43946;DHT22;29599;51.196;4.428;2022-10-19T14:19:55;15.00;99.90
43946;DHT22;29599;51.196;4.428;2022-10-19T14:22:42;15.00;99.90
43946;DHT22;29599;51.196;4.428;2022-10-19T14:25:18;15.00;99.90
43946;DHT22;29599;51.196;4.428;2022-10-19T14:27:50;15.00;99.90
43946;DHT22;29599;51.196;4.428;2022-10-19T14:30:29;15.00;99.90
43946;DHT22;29599;51.196;4.428;2022-10-19T14:32:57;15.00;99.90
43946;DHT22;29599;51.196;4.428;2022-10-19T14:35:28;14.90;99.90
43946;DHT22;29599;51.196;4.428;2022-10-19T14:37:54;14.90;99.90
43946;DHT22;29599;51.196;4.428;2022-10-19T14:42:48;14.90;99.90
43946;DHT22;29599;51.196;4.428;2022-10-19T14:45:20;14.90;99.90
43946;DHT22;29599;51.196;4.428;2022-10-19T14:48:04;14.90;99.90
43946;DHT22;29599;51.196;4.428;2022-10-19T14:53:27;14.90;99.90
43946;DHT22;29599;51.196;4.428;2022-10-19T14:55:59;15.00;99.90
43946;DHT22;29599;51.196;4.428;2022-10-19T14:58:31;15.00;99.90
43946;DHT22;29599;51.196;4.428;2022-10-19T15:00:59;14.90;99.90
43946;DHT22;29599;51.196;4.428;2022-10-19T15:03:26;14.90;99.90
43946;DHT22;29599;51.196;4.428;2022-10-19T15:06:00;15.00;99.90
43946;DHT22;29599;51.196;4.428;2022-10-19T15:08:38;15.00;99.90
43946;DHT22;29599;51.196;4.428;2022-10-19T15:11:18;14.90;99.90
43946;DHT22;29599;51.196;4.428;2022-10-19T15:13:45;14.90;99.90
43946;DHT22;29599;51.196;4.428;2022-10-19T15:16:31;14.90;99.90
43946;DHT22;29599;51.196;4.428;2022-10-19T15:19:03;14.90;99.90
43946;DHT22;29599;51.196;4.428;2022-10-19T15:21:28;14.90;99.90
43946;DHT22;29599;51.196;4.428;2022-10-19T15:24:07;14.90;99.90
43946;DHT22;29599;51.196;4.428;2022-10-19T15:26:39;14.80;99.90
43946;DHT22;29599;51.196;4.428;2022-10-19T15:29:17;14.90;99.90
43946;DHT22;29599;51.196;4.428;2022-10-19T15:31:43;14.80;99.90
43946;DHT22;29599;51.196;4.428;2022-10-19T15:34:22;14.80;99.90
43946;DHT22;29599;51.196;4.428;2022-10-19T15:36:56;14.80;99.90
43946;DHT22;29599;51.196;4.428;2022-10-19T15:39:28;14.70;99.90
43946;DHT22;29599;51.196;4.428;2022-10-19T15:41:55;14.70;99.90
43946;DHT22;29599;51.196;4.428;2022-10-19T15:44:41;14.80;99.90
43946;DHT22;29599;51.196;4.428;2022-10-19T15:52:18;14.70;99.90
43946;DHT22;29599;51.196;4.428;2022-10-19T15:54:48;14.60;99.90
43946;DHT22;29599;51.196;4.428;2022-10-19T15:59:53;14.60;99.90
43946;DHT22;29599;51.196;4.428;2022-10-19T16:02:19;14.60;99.90
43946;DHT22;29599;51.196;4.428;2022-10-19T16:04:44;14.60;99.90
43946;DHT22;29599;51.196;4.428;2022-10-19T16:07:16;14.60;99.90
43946;DHT22;29599;51.196;4.428;2022-10-19T16:09:44;14.60;99.90
43946;DHT22;29599;51.196;4.428;2022-10-19T16:12:10;14.50;99.90
43946;DHT22;29599;51.196;4.428;2022-10-19T16:14:35;14.50;99.90
43946;DHT22;29599;51.196;4.428;2022-10-19T16:17:01;14.50;99.90
43946;DHT22;29599;51.196;4.428;2022-10-19T16:19:27;14.50;99.90
43946;DHT22;29599;51.196;4.428;2022-10-19T16:21:52;14.50;99.90
43946;DHT22;29599;51.196;4.428;2022-10-19T16:24:18;14.50;99.90
43946;DHT22;29599;51.196;4.428;2022-10-19T16:26:43;14.40;99.90
43946;DHT22;29599;51.196;4.428;2022-10-19T16:29:09;14.40;99.90
43946;DHT22;29599;51.196;4.428;2022-10-19T16:31:36;14.40;99.90
43946;DHT22;29599;51.196;4.428;2022-10-19T16:34:02;14.40;99.90
43946;DHT22;29599;51.196;4.428;2022-10-19T16:36:27;14.40;99.90
43946;DHT22;29599;51.196;4.428;2022-10-19T16:38:53;14.40;99.90
43946;DHT22;29599;51.196;4.428;2022-10-19T16:41:18;14.40;99.90
43946;DHT22;29599;51.196;4.428;2022-10-19T16:43:44;14.30;99.90
43946;DHT22;29599;51.196;4.428;2022-10-19T16:46:12;14.30;99.90
43946;DHT22;29599;51.196;4.428;2022-10-19T16:48:38;14.30;99.90
43946;DHT22;29599;51.196;4.428;2022-10-19T16:53:33;14.20;99.90
43946;DHT22;29599;51.196;4.428;2022-10-19T16:56:04;14.20;99.90
43946;DHT22;29599;51.196;4.428;2022-10-19T16:58:30;14.20;99.90
43946;DHT22;29599;51.196;4.428;2022-10-19T17:00:55;14.20;99.90
43946;DHT22;29599;51.196;4.428;2022-10-19T17:03:28;14.20;99.90
43946;DHT22;29599;51.196;4.428;2022-10-19T17:05:54;14.20;99.90
43946;DHT22;29599;51.196;4.428;2022-10-19T17:08:19;14.10;99.90
43946;DHT22;29599;51.196;4.428;2022-10-19T17:10:45;14.10;99.90
43946;DHT22;29599;51.196;4.428;2022-10-19T17:13:11;14.10;99.90
43946;DHT22;29599;51.196;4.428;2022-10-19T17:15:37;14.10;99.90
43946;DHT22;29599;51.196;4.428;2022-10-19T17:18:03;14.10;99.90
43946;DHT22;29599;51.196;4.428;2022-10-19T17:20:31;14.10;99.90
43946;DHT22;29599;51.196;4.428;2022-10-19T17:22:56;14.10;99.90
43946;DHT22;29599;51.196;4.428;2022-10-19T17:25:22;14.10;99.90
43946;DHT22;29599;51.196;4.428;2022-10-19T17:27:49;14.10;99.90
43946;DHT22;29599;51.196;4.428;2022-10-19T17:30:15;14.00;99.90
43946;DHT22;29599;51.196;4.428;2022-10-19T17:32:40;14.00;99.90
43946;DHT22;29599;51.196;4.428;2022-10-19T17:35:06;13.90;99.90
43946;DHT22;29599;51.196;4.428;2022-10-19T17:37:32;13.90;99.90
43946;DHT22;29599;51.196;4.428;2022-10-19T17:39:58;13.90;99.90
43946;DHT22;29599;51.196;4.428;2022-10-19T17:42:23;13.80;99.90
43946;DHT22;29599;51.196;4.428;2022-10-19T17:44:49;13.80;99.90
43946;DHT22;29599;51.196;4.428;2022-10-19T17:47:14;13.80;99.90
43946;DHT22;29599;51.196;4.428;2022-10-19T17:49:40;13.80;99.90
43946;DHT22;29599;51.196;4.428;2022-10-19T17:52:05;13.80;99.90
43946;DHT22;29599;51.196;4.428;2022-10-19T17:54:31;13.80;99.90
43946;DHT22;29599;51.196;4.428;2022-10-19T17:56:57;13.70;99.90
43946;DHT22;29599;51.196;4.428;2022-10-19T17:59:22;13.70;99.90